createdAt,value
2022-07-27T00:00:35.975Z,4.00
2022-07-27T00:01:35.861Z,4.00
2022-07-27T00:02:35.854Z,4.00
2022-07-27T00:03:35.743Z,4.00
2022-07-27T00:04:35.740Z,4.00
2022-07-27T00:05:35.875Z,4.00
2022-07-27T00:06:35.582Z,4.00
2022-07-27T00:07:35.486Z,4.00
2022-07-27T00:08:35.466Z,4.00
2022-07-27T00:09:35.339Z,0.00
2022-07-27T00:10:35.292Z,0.00
2022-07-27T00:11:35.191Z,0.00
2022-07-27T00:12:35.139Z,0.00
2022-07-27T00:13:35.076Z,0.00
2022-07-27T00:14:35.010Z,0.00
2022-07-27T00:15:34.953Z,0.00
2022-07-27T00:16:34.984Z,0.00
2022-07-27T00:17:34.831Z,0.00
2022-07-27T00:18:34.771Z,0.00
2022-07-27T00:19:34.738Z,0.00
2022-07-27T00:20:34.651Z,0.00
2022-07-27T00:21:34.586Z,0.00
2022-07-27T00:22:34.531Z,0.00
2022-07-27T00:23:34.469Z,0.00
2022-07-27T00:24:34.412Z,0.00
2022-07-27T00:25:34.349Z,0.00
2022-07-27T00:26:34.287Z,0.00
2022-07-27T00:27:34.224Z,0.00
2022-07-27T00:28:34.169Z,0.00
2022-07-27T00:29:34.149Z,0.00
2022-07-27T00:30:34.043Z,0.00
2022-07-27T00:31:34.108Z,0.00
2022-07-27T00:32:33.923Z,0.00
2022-07-27T00:33:33.861Z,0.00
2022-07-27T00:34:33.807Z,0.00
2022-07-27T00:35:33.750Z,0.00
2022-07-27T00:36:33.685Z,0.00
2022-07-27T00:37:33.622Z,0.00
2022-07-27T00:38:33.575Z,0.00
2022-07-27T00:39:33.505Z,0.00
2022-07-27T00:40:33.442Z,0.00
2022-07-27T00:41:33.408Z,0.00
2022-07-27T00:42:33.321Z,0.00
2022-07-27T00:43:33.257Z,0.00
2022-07-27T00:44:33.203Z,0.00
2022-07-27T00:45:33.139Z,0.00
2022-07-27T00:46:33.133Z,0.00
2022-07-27T00:47:33.019Z,0.00
2022-07-27T00:48:33.040Z,0.00
2022-07-27T00:49:32.895Z,0.00
2022-07-27T00:50:32.834Z,0.00
2022-07-27T00:51:32.776Z,0.00
2022-07-27T00:52:32.715Z,0.00
2022-07-27T00:53:32.657Z,0.00
2022-07-27T00:54:32.590Z,0.00
2022-07-27T00:55:32.552Z,0.00
2022-07-27T00:56:32.475Z,0.00
2022-07-27T00:57:32.447Z,0.00
2022-07-27T00:58:32.351Z,0.00
2022-07-27T00:59:32.349Z,0.00
2022-07-27T01:00:32.225Z,0.00
2022-07-27T01:01:32.371Z,0.00
2022-07-27T01:02:32.191Z,0.00
2022-07-27T01:03:32.046Z,0.00
2022-07-27T01:04:31.989Z,0.00
2022-07-27T01:05:36.304Z,0.00
2022-07-27T01:06:31.862Z,0.00
2022-07-27T01:07:31.800Z,0.00
2022-07-27T01:08:31.751Z,0.00
2022-07-27T01:09:31.684Z,0.00
2022-07-27T01:10:31.618Z,0.00
2022-07-27T01:11:31.563Z,0.00
2022-07-27T01:12:31.509Z,0.00
2022-07-27T01:13:31.436Z,0.00
2022-07-27T01:14:31.376Z,0.00
2022-07-27T01:15:31.321Z,0.00
2022-07-27T01:16:31.277Z,0.00
2022-07-27T01:17:31.190Z,0.00
2022-07-27T01:18:31.136Z,0.00
2022-07-27T01:19:31.072Z,0.00
2022-07-27T01:20:31.009Z,0.00
2022-07-27T01:21:33.057Z,0.00
2022-07-27T01:22:30.891Z,0.00
2022-07-27T01:23:30.827Z,0.00
2022-07-27T01:24:30.764Z,0.00
2022-07-27T01:25:30.707Z,0.00
2022-07-27T01:26:30.651Z,0.00
2022-07-27T01:27:30.581Z,0.00
2022-07-27T01:28:30.525Z,0.00
2022-07-27T01:29:30.461Z,0.00
2022-07-27T01:30:30.632Z,0.00
2022-07-27T01:31:30.385Z,0.00
2022-07-27T01:32:30.284Z,0.00
2022-07-27T01:33:30.221Z,0.00
2022-07-27T01:34:30.157Z,0.00
2022-07-27T01:35:30.092Z,0.00
2022-07-27T01:36:30.036Z,0.00
2022-07-27T01:37:29.981Z,0.00
2022-07-27T01:38:29.906Z,0.00
2022-07-27T01:39:29.848Z,0.00
2022-07-27T01:40:29.792Z,0.00
2022-07-27T01:41:29.735Z,0.00
2022-07-27T01:42:29.672Z,0.00
2022-07-27T01:43:29.607Z,0.00
2022-07-27T01:44:29.542Z,0.00
2022-07-27T01:45:29.481Z,0.00
2022-07-27T01:46:29.460Z,0.00
2022-07-27T01:47:29.357Z,0.00
2022-07-27T01:48:29.294Z,0.00
2022-07-27T01:49:29.327Z,0.00
2022-07-27T01:50:29.173Z,0.00
2022-07-27T01:51:29.108Z,0.00
2022-07-27T01:52:29.052Z,0.00
2022-07-27T01:53:28.989Z,0.00
2022-07-27T01:54:28.928Z,0.00
2022-07-27T01:55:35.781Z,0.00
2022-07-27T01:56:28.806Z,0.00
2022-07-27T01:57:28.745Z,0.00
2022-07-27T01:58:28.690Z,0.00
2022-07-27T01:59:28.620Z,0.00
2022-07-27T02:00:28.568Z,0.00
2022-07-27T02:01:28.527Z,0.00
2022-07-27T02:02:28.435Z,0.00
2022-07-27T02:03:28.376Z,0.00
2022-07-27T02:04:28.318Z,0.00
2022-07-27T02:05:28.325Z,0.00
2022-07-27T02:06:28.187Z,0.00
2022-07-27T02:07:28.123Z,0.00
2022-07-27T02:08:28.069Z,0.00
2022-07-27T02:09:28.001Z,0.00
2022-07-27T02:10:27.942Z,0.00
2022-07-27T02:11:27.879Z,0.00
2022-07-27T02:12:27.820Z,0.00
2022-07-27T02:13:27.777Z,0.00
2022-07-27T02:14:27.699Z,0.00
2022-07-27T02:15:27.849Z,0.00
2022-07-27T02:16:27.643Z,0.00
2022-07-27T02:17:29.702Z,0.00
2022-07-27T02:18:36.041Z,0.00
2022-07-27T02:19:27.396Z,0.00
2022-07-27T02:20:27.337Z,0.00
2022-07-27T02:21:27.264Z,0.00
2022-07-27T02:22:27.208Z,0.00
2022-07-27T02:23:27.143Z,0.00
2022-07-27T02:24:27.086Z,0.00
2022-07-27T02:25:27.025Z,0.00
2022-07-27T02:26:26.965Z,0.00
2022-07-27T02:27:26.893Z,0.00
2022-07-27T02:28:26.834Z,0.00
2022-07-27T02:29:26.780Z,0.00
2022-07-27T02:30:26.709Z,0.00
2022-07-27T02:31:26.661Z,0.00
2022-07-27T02:32:26.659Z,0.00
2022-07-27T02:33:26.529Z,0.00
2022-07-27T02:34:26.474Z,0.00
2022-07-27T02:35:26.437Z,0.00
2022-07-27T02:36:26.338Z,0.00
2022-07-27T02:37:26.277Z,0.00
2022-07-27T02:38:26.221Z,0.00
2022-07-27T02:39:26.155Z,0.00
2022-07-27T02:40:26.093Z,0.00
2022-07-27T02:41:26.034Z,0.00
2022-07-27T02:42:25.971Z,0.00
2022-07-27T02:43:25.919Z,0.00
2022-07-27T02:44:25.848Z,0.00
2022-07-27T02:45:25.781Z,0.00
2022-07-27T02:46:25.763Z,4.00
2022-07-27T02:47:25.661Z,4.00
2022-07-27T02:48:25.598Z,0.00
2022-07-27T02:49:25.643Z,0.00
2022-07-27T02:50:25.479Z,0.00
2022-07-27T02:51:25.411Z,4.00
2022-07-27T02:52:25.351Z,4.00
2022-07-27T02:53:25.294Z,0.00
2022-07-27T02:54:25.231Z,4.00
2022-07-27T02:55:25.164Z,4.00
2022-07-27T02:56:26.711Z,4.00
2022-07-27T02:57:25.042Z,4.00
2022-07-27T02:58:24.983Z,4.00
2022-07-27T02:59:24.914Z,8.00
2022-07-27T03:00:24.855Z,4.00
2022-07-27T03:01:24.827Z,8.00
2022-07-27T03:02:24.729Z,8.00
2022-07-27T03:03:24.677Z,8.00
2022-07-27T03:04:24.668Z,12.00
2022-07-27T03:05:24.565Z,8.00
2022-07-27T03:06:24.495Z,8.00
2022-07-27T03:07:24.419Z,12.00
2022-07-27T03:08:24.359Z,12.00
2022-07-27T03:09:32.939Z,16.00
2022-07-27T03:10:24.236Z,16.00
2022-07-27T03:11:24.178Z,16.00
2022-07-27T03:12:24.111Z,16.00
2022-07-27T03:13:24.050Z,16.00
2022-07-27T03:14:23.986Z,20.00
2022-07-27T03:15:23.922Z,20.00
2022-07-27T03:16:23.923Z,20.00
2022-07-27T03:17:23.819Z,20.00
2022-07-27T03:18:23.739Z,20.00
2022-07-27T03:19:28.287Z,24.00
2022-07-27T03:20:23.632Z,28.00
2022-07-27T03:21:23.554Z,28.00
2022-07-27T03:22:23.495Z,32.00
2022-07-27T03:23:23.432Z,36.00
2022-07-27T03:24:23.377Z,36.00
2022-07-27T03:25:23.319Z,36.00
2022-07-27T03:26:23.252Z,36.00
2022-07-27T03:27:23.183Z,40.00
2022-07-27T03:28:23.131Z,40.00
2022-07-27T03:29:23.062Z,44.00
2022-07-27T03:30:23.674Z,48.00
2022-07-27T03:31:22.998Z,52.00
2022-07-27T03:32:22.876Z,56.00
2022-07-27T03:33:22.808Z,56.00
2022-07-27T03:34:22.743Z,60.00
2022-07-27T03:35:22.685Z,60.00
2022-07-27T03:36:22.624Z,64.00
2022-07-27T03:37:22.561Z,64.00
2022-07-27T03:38:22.528Z,68.00
2022-07-27T03:39:22.430Z,72.00
2022-07-27T03:40:22.373Z,72.00
2022-07-27T03:41:22.308Z,72.00
2022-07-27T03:42:22.245Z,80.00
2022-07-27T03:43:22.185Z,84.00
2022-07-27T03:44:22.151Z,88.00
2022-07-27T03:45:22.065Z,92.00
2022-07-27T03:46:22.057Z,96.00
2022-07-27T03:47:21.941Z,104.00
2022-07-27T03:48:21.875Z,104.00
2022-07-27T03:49:21.868Z,116.00
2022-07-27T03:50:21.765Z,124.00
2022-07-27T03:51:21.687Z,132.00
2022-07-27T03:52:21.629Z,136.00
2022-07-27T03:53:21.573Z,148.00
2022-07-27T03:54:21.507Z,152.00
2022-07-27T03:55:21.446Z,164.00
2022-07-27T03:56:21.378Z,172.00
2022-07-27T03:57:21.315Z,184.00
2022-07-27T03:58:21.258Z,192.00
2022-07-27T03:59:21.196Z,196.00
2022-07-27T04:00:21.135Z,208.00
2022-07-27T04:01:21.167Z,216.00
2022-07-27T04:02:21.060Z,224.00
2022-07-27T04:03:20.943Z,236.00
2022-07-27T04:04:20.880Z,248.00
2022-07-27T04:05:20.816Z,256.00
2022-07-27T04:06:20.753Z,264.00
2022-07-27T04:07:20.693Z,276.00
2022-07-27T04:08:20.631Z,284.00
2022-07-27T04:09:20.566Z,292.00
2022-07-27T04:10:20.511Z,304.00
2022-07-27T04:11:20.451Z,312.00
2022-07-27T04:12:20.381Z,324.00
2022-07-27T04:13:20.321Z,328.00
2022-07-27T04:14:20.259Z,340.00
2022-07-27T04:15:20.215Z,348.00
2022-07-27T04:16:20.172Z,356.00
2022-07-27T04:17:54.478Z,364.00
2022-07-27T04:18:20.009Z,372.00
2022-07-27T04:19:19.948Z,376.00
2022-07-27T04:20:19.886Z,384.00
2022-07-27T04:21:19.831Z,392.00
2022-07-27T04:22:19.772Z,396.00
2022-07-27T04:23:19.703Z,400.00
2022-07-27T04:24:19.643Z,400.00
2022-07-27T04:25:19.578Z,404.00
2022-07-27T04:26:19.516Z,404.00
2022-07-27T04:27:19.452Z,404.00
2022-07-27T04:28:19.434Z,404.00
2022-07-27T04:29:20.722Z,400.00
2022-07-27T04:30:19.267Z,404.00
2022-07-27T04:31:19.266Z,400.00
2022-07-27T04:32:19.143Z,404.00
2022-07-27T04:33:19.082Z,408.00
2022-07-27T04:34:19.021Z,420.00
2022-07-27T04:35:22.764Z,432.00
2022-07-27T04:36:18.893Z,440.00
2022-07-27T04:37:18.838Z,456.00
2022-07-27T04:38:18.767Z,472.00
2022-07-27T04:39:18.710Z,488.00
2022-07-27T04:40:18.668Z,496.00
2022-07-27T04:41:18.584Z,508.00
2022-07-27T04:42:18.522Z,532.00
2022-07-27T04:43:18.463Z,552.00
2022-07-27T04:44:18.396Z,580.00
2022-07-27T04:45:18.338Z,596.00
2022-07-27T04:46:18.340Z,612.00
2022-07-27T04:47:18.223Z,628.00
2022-07-27T04:48:18.151Z,640.00
2022-07-27T04:49:18.123Z,644.00
2022-07-27T04:50:18.028Z,660.00
2022-07-27T04:51:17.979Z,680.00
2022-07-27T04:52:17.903Z,700.00
2022-07-27T04:53:17.846Z,716.00
2022-07-27T04:54:17.778Z,736.00
2022-07-27T04:55:17.721Z,748.00
2022-07-27T04:56:17.654Z,784.00
2022-07-27T04:57:17.606Z,804.00
2022-07-27T04:58:17.545Z,828.00
2022-07-27T04:59:17.473Z,864.00
2022-07-27T05:00:17.416Z,916.00
2022-07-27T05:01:17.421Z,968.00
2022-07-27T05:02:17.287Z,1040.00
2022-07-27T05:03:17.238Z,1108.00
2022-07-27T05:04:17.284Z,1244.00
2022-07-27T05:05:17.108Z,1308.00
2022-07-27T05:06:17.035Z,1464.00
2022-07-27T05:07:16.979Z,1484.00
2022-07-27T05:08:16.920Z,1800.00
2022-07-27T05:09:16.862Z,2040.00
2022-07-27T05:10:20.406Z,2268.00
2022-07-27T05:11:16.731Z,2532.00
2022-07-27T05:12:16.666Z,2816.00
2022-07-27T05:13:16.607Z,3176.00
2022-07-27T05:14:16.545Z,3608.00
2022-07-27T05:15:16.488Z,4044.00
2022-07-27T05:16:16.453Z,3988.00
2022-07-27T05:17:16.367Z,4672.00
2022-07-27T05:18:16.296Z,4972.00
2022-07-27T05:19:16.244Z,4272.00
2022-07-27T05:20:16.175Z,3188.00
2022-07-27T05:21:16.118Z,4696.00
2022-07-27T05:22:16.052Z,5152.00
2022-07-27T05:23:15.996Z,1916.00
2022-07-27T05:24:15.934Z,1352.00
2022-07-27T05:25:15.876Z,1352.00
2022-07-27T05:26:15.809Z,1312.00
2022-07-27T05:27:15.753Z,1308.00
2022-07-27T05:28:15.689Z,1628.00
2022-07-27T05:29:15.855Z,1612.00
2022-07-27T05:30:15.591Z,1364.00
2022-07-27T05:31:15.587Z,1304.00
2022-07-27T05:32:15.534Z,1448.00
2022-07-27T05:33:15.391Z,1972.00
2022-07-27T05:34:15.327Z,1504.00
2022-07-27T05:35:15.278Z,1580.00
2022-07-27T05:36:15.230Z,2056.00
2022-07-27T05:37:15.161Z,2408.00
2022-07-27T05:38:15.101Z,4620.00
2022-07-27T05:39:15.555Z,5392.00
2022-07-27T05:40:15.044Z,5384.00
2022-07-27T05:41:14.905Z,5440.00
2022-07-27T05:42:14.845Z,5420.00
2022-07-27T05:43:14.801Z,5452.00
2022-07-27T05:44:14.724Z,5556.00
2022-07-27T05:45:14.673Z,3960.00
2022-07-27T05:46:14.649Z,4508.00
2022-07-27T05:47:14.543Z,5680.00
2022-07-27T05:48:14.513Z,5624.00
2022-07-27T05:49:15.010Z,5616.00
2022-07-27T05:50:14.375Z,5688.00
2022-07-27T05:51:14.308Z,5732.00
2022-07-27T05:52:14.243Z,5808.00
2022-07-27T05:53:14.200Z,5876.00
2022-07-27T05:54:14.124Z,5924.00
2022-07-27T05:55:14.070Z,6016.00
2022-07-27T05:56:14.007Z,6048.00
2022-07-27T05:57:13.968Z,6084.00
2022-07-27T05:58:13.888Z,6116.00
2022-07-27T05:59:14.104Z,6132.00
2022-07-27T06:00:13.772Z,6168.00
2022-07-27T06:01:13.756Z,6188.00
2022-07-27T06:02:13.660Z,6200.00
2022-07-27T06:03:13.652Z,6196.00
2022-07-27T06:04:14.735Z,6252.00
2022-07-27T06:05:17.352Z,6292.00
2022-07-27T06:06:13.426Z,6320.00
2022-07-27T06:07:13.360Z,6360.00
2022-07-27T06:08:13.300Z,6348.00
2022-07-27T06:09:13.652Z,6412.00
2022-07-27T06:10:13.185Z,6408.00
2022-07-27T06:11:13.127Z,6416.00
2022-07-27T06:12:13.071Z,6476.00
2022-07-27T06:13:13.013Z,6532.00
2022-07-27T06:14:12.954Z,6544.00
2022-07-27T06:15:12.898Z,6576.00
2022-07-27T06:16:12.924Z,6580.00
2022-07-27T06:17:12.778Z,6612.00
2022-07-27T06:18:12.717Z,6632.00
2022-07-27T06:19:13.125Z,6708.00
2022-07-27T06:20:12.606Z,6772.00
2022-07-27T06:21:12.548Z,6816.00
2022-07-27T06:22:12.486Z,6844.00
2022-07-27T06:23:12.430Z,6880.00
2022-07-27T06:24:12.372Z,6948.00
2022-07-27T06:25:12.329Z,7004.00
2022-07-27T06:26:12.254Z,7052.00
2022-07-27T06:27:12.203Z,7036.00
2022-07-27T06:28:12.151Z,7104.00
2022-07-27T06:29:12.434Z,7136.00
2022-07-27T06:30:12.106Z,7132.00
2022-07-27T06:31:11.994Z,7060.00
2022-07-27T06:32:11.996Z,7184.00
2022-07-27T06:33:11.865Z,7212.00
2022-07-27T06:34:12.113Z,7232.00
2022-07-27T06:35:12.579Z,7288.00
2022-07-27T06:36:11.682Z,7420.00
2022-07-27T06:37:11.626Z,7368.00
2022-07-27T06:38:11.570Z,6728.00
2022-07-27T06:39:11.843Z,7588.00
2022-07-27T06:40:11.453Z,6792.00
2022-07-27T06:41:11.414Z,5432.00
2022-07-27T06:42:11.338Z,4528.00
2022-07-27T06:43:11.282Z,4164.00
2022-07-27T06:44:11.218Z,4832.00
2022-07-27T06:45:11.165Z,6020.00
2022-07-27T06:46:11.108Z,7520.00
2022-07-27T06:47:11.103Z,6768.00
2022-07-27T06:48:10.996Z,7132.00
2022-07-27T06:49:11.313Z,5648.00
2022-07-27T06:50:10.876Z,4168.00
2022-07-27T06:51:10.828Z,3896.00
2022-07-27T06:52:10.764Z,3120.00
2022-07-27T06:53:10.708Z,2508.00
2022-07-27T06:54:10.665Z,2396.00
2022-07-27T06:55:10.592Z,2380.00
2022-07-27T06:56:10.537Z,2452.00
2022-07-27T06:57:10.478Z,2500.00
2022-07-27T06:58:10.418Z,2492.00
2022-07-27T06:59:10.670Z,2628.00
2022-07-27T07:00:10.313Z,2924.00
2022-07-27T07:01:10.289Z,3076.00
2022-07-27T07:02:10.192Z,3228.00
2022-07-27T07:03:10.132Z,4216.00
2022-07-27T07:04:10.138Z,2876.00
2022-07-27T07:05:10.081Z,3184.00
2022-07-27T07:06:10.044Z,3336.00
2022-07-27T07:07:09.944Z,3372.00
2022-07-27T07:08:09.888Z,3532.00
2022-07-27T07:09:10.347Z,3404.00
2022-07-27T07:10:09.724Z,3392.00
2022-07-27T07:11:09.674Z,2768.00
2022-07-27T07:12:09.614Z,2180.00
2022-07-27T07:13:09.556Z,2024.00
2022-07-27T07:14:09.498Z,1796.00
2022-07-27T07:15:09.437Z,1648.00
2022-07-27T07:16:09.455Z,1764.00
2022-07-27T07:17:09.400Z,2380.00
2022-07-27T07:18:09.262Z,2488.00
2022-07-27T07:19:09.421Z,3372.00
2022-07-27T07:20:09.145Z,3600.00
2022-07-27T07:21:09.088Z,3664.00
2022-07-27T07:22:09.029Z,3824.00
2022-07-27T07:23:08.979Z,3856.00
2022-07-27T07:24:08.916Z,3820.00
2022-07-27T07:25:08.858Z,4396.00
2022-07-27T07:26:08.799Z,4272.00
2022-07-27T07:27:08.741Z,4500.00
2022-07-27T07:28:08.681Z,4092.00
2022-07-27T07:29:08.798Z,3716.00
2022-07-27T07:30:08.600Z,3456.00
2022-07-27T07:31:08.564Z,3692.00
2022-07-27T07:32:08.450Z,3332.00
2022-07-27T07:33:08.393Z,3708.00
2022-07-27T07:34:08.334Z,3320.00
2022-07-27T07:35:08.305Z,3168.00
2022-07-27T07:36:11.941Z,3600.00
2022-07-27T07:37:08.162Z,3504.00
2022-07-27T07:38:08.100Z,3744.00
2022-07-27T07:39:08.045Z,3264.00
2022-07-27T07:40:40.062Z,4232.00
2022-07-27T07:41:07.941Z,3284.00
2022-07-27T07:42:10.956Z,3176.00
2022-07-27T07:43:07.809Z,3052.00
2022-07-27T07:44:07.752Z,3116.00
2022-07-27T07:45:07.695Z,3008.00
2022-07-27T07:46:07.658Z,2852.00
2022-07-27T07:47:07.626Z,2600.00
2022-07-27T07:48:07.527Z,2588.00
2022-07-27T07:49:07.503Z,2536.00
2022-07-27T07:50:08.591Z,2372.00
2022-07-27T07:51:07.409Z,1776.00
2022-07-27T07:52:07.380Z,1504.00
2022-07-27T07:53:07.256Z,1428.00
2022-07-27T07:54:07.224Z,1436.00
2022-07-27T07:55:08.432Z,1448.00
2022-07-27T07:56:07.086Z,1408.00
2022-07-27T07:57:07.451Z,1332.00
2022-07-27T07:58:07.023Z,1208.00
2022-07-27T07:59:06.957Z,1104.00
2022-07-27T08:00:06.920Z,1012.00
2022-07-27T08:01:06.795Z,916.00
2022-07-27T08:02:06.812Z,852.00
2022-07-27T08:03:06.781Z,856.00
2022-07-27T08:04:06.644Z,872.00
2022-07-27T08:05:06.578Z,924.00
2022-07-27T08:06:06.549Z,928.00
2022-07-27T08:07:06.453Z,940.00
2022-07-27T08:08:06.492Z,996.00
2022-07-27T08:09:06.702Z,1148.00
2022-07-27T08:10:06.305Z,1440.00
2022-07-27T08:11:06.207Z,1732.00
2022-07-27T08:12:06.179Z,1868.00
2022-07-27T08:13:08.220Z,1868.00
2022-07-27T08:14:06.085Z,1840.00
2022-07-27T08:15:06.018Z,2188.00
2022-07-27T08:16:06.028Z,1904.00
2022-07-27T08:17:06.510Z,1620.00
2022-07-27T08:18:05.955Z,1412.00
2022-07-27T08:19:05.815Z,1192.00
2022-07-27T08:20:05.715Z,1068.00
2022-07-27T08:21:05.722Z,1000.00
2022-07-27T08:22:05.555Z,968.00
2022-07-27T08:23:05.562Z,1016.00
2022-07-27T08:24:05.467Z,1172.00
2022-07-27T08:25:05.446Z,1444.00
2022-07-27T08:26:08.021Z,1796.00
2022-07-27T08:27:05.280Z,2748.00
2022-07-27T08:28:05.256Z,3848.00
2022-07-27T08:29:11.377Z,3924.00
2022-07-27T08:30:05.196Z,3248.00
2022-07-27T08:31:14.162Z,4752.00
2022-07-27T08:32:05.945Z,3516.00
2022-07-27T08:33:05.080Z,6316.00
2022-07-27T08:34:04.917Z,6240.00
2022-07-27T08:35:04.889Z,6760.00
2022-07-27T08:36:04.794Z,3588.00
2022-07-27T08:37:04.733Z,5956.00
2022-07-27T08:38:04.701Z,3164.00
2022-07-27T08:39:04.605Z,5824.00
2022-07-27T08:41:04.809Z,5756.00
2022-07-27T08:42:04.420Z,8060.00
2022-07-27T08:43:05.231Z,6788.00
2022-07-27T08:44:04.368Z,7316.00
2022-07-27T08:45:04.207Z,7180.00
2022-07-27T08:46:04.824Z,5612.00
2022-07-27T08:47:04.216Z,4512.00
2022-07-27T08:48:04.052Z,3144.00
2022-07-27T08:49:04.091Z,2308.00
2022-07-27T08:50:04.059Z,2000.00
2022-07-27T08:51:03.946Z,1928.00
2022-07-27T08:52:03.802Z,3424.00
2022-07-27T08:53:03.775Z,2972.00
2022-07-27T08:54:03.905Z,1996.00
2022-07-27T08:55:03.681Z,2604.00
2022-07-27T08:56:03.621Z,3588.00
2022-07-27T08:57:03.594Z,1812.00
2022-07-27T08:58:04.113Z,1520.00
2022-07-27T08:59:03.438Z,1320.00
2022-07-27T09:00:03.428Z,1236.00
2022-07-27T09:01:03.308Z,1184.00
2022-07-27T09:02:03.764Z,1104.00
2022-07-27T09:03:03.619Z,1024.00
2022-07-27T09:04:03.156Z,1008.00
2022-07-27T09:05:03.132Z,1048.00
2022-07-27T09:06:03.037Z,1116.00
2022-07-27T09:07:02.970Z,1152.00
2022-07-27T09:08:02.960Z,1140.00
2022-07-27T09:09:04.323Z,1136.00
2022-07-27T09:10:02.784Z,1208.00
2022-07-27T09:11:06.206Z,1368.00
2022-07-27T09:12:02.699Z,1644.00
2022-07-27T09:13:02.669Z,2148.00
2022-07-27T09:14:02.570Z,2276.00
2022-07-27T09:15:02.509Z,2544.00
2022-07-27T09:16:17.643Z,3964.00
2022-07-27T09:18:02.357Z,2504.00
2022-07-27T09:19:02.333Z,2828.00
2022-07-27T09:20:02.341Z,2980.00
2022-07-27T09:21:04.462Z,3376.00
2022-07-27T09:22:02.118Z,3340.00
2022-07-27T09:23:02.048Z,3036.00
2022-07-27T09:24:02.031Z,2376.00
2022-07-27T09:25:01.938Z,3104.00
2022-07-27T09:26:04.776Z,2156.00
2022-07-27T09:27:04.502Z,2348.00
2022-07-27T09:28:01.838Z,2308.00
2022-07-27T09:29:01.854Z,2228.00
2022-07-27T09:30:03.913Z,2252.00
2022-07-27T09:31:01.609Z,3540.00
2022-07-27T09:32:01.700Z,4520.00
2022-07-27T09:33:01.724Z,3056.00
2022-07-27T09:34:01.981Z,4852.00
2022-07-27T09:35:01.382Z,4400.00
2022-07-27T09:36:01.460Z,3700.00
2022-07-27T09:37:01.214Z,2760.00
2022-07-27T09:38:01.201Z,2516.00
2022-07-27T09:39:02.787Z,6580.00
2022-07-27T09:40:01.121Z,2652.00
2022-07-27T09:41:01.011Z,2440.00
2022-07-27T09:42:01.300Z,4952.00
2022-07-27T09:43:14.488Z,3432.00
2022-07-27T09:45:00.821Z,2360.00
2022-07-27T09:46:00.824Z,2164.00
2022-07-27T09:47:00.766Z,1928.00
2022-07-27T09:48:00.645Z,1672.00
2022-07-27T09:49:00.616Z,1448.00
2022-07-27T09:50:02.221Z,1296.00
2022-07-27T09:51:02.687Z,1204.00
2022-07-27T09:52:03.341Z,1128.00
2022-07-27T09:53:00.290Z,1056.00
2022-07-27T09:54:00.280Z,1016.00
2022-07-27T09:55:00.201Z,1000.00
2022-07-27T09:56:00.186Z,1008.00
2022-07-27T09:57:00.107Z,1040.00
2022-07-27T09:58:00.013Z,1080.00
2022-07-27T09:58:59.991Z,1128.00
2022-07-27T09:59:59.992Z,1148.00
2022-07-27T10:00:59.908Z,1196.00
2022-07-27T10:01:59.854Z,1232.00
2022-07-27T10:03:00.055Z,1304.00
2022-07-27T10:03:59.729Z,1408.00
2022-07-27T10:04:59.712Z,1516.00
2022-07-27T10:05:59.550Z,1640.00
2022-07-27T10:07:04.649Z,1784.00
2022-07-27T10:07:59.460Z,1968.00
2022-07-27T10:08:59.442Z,2116.00
2022-07-27T10:09:59.350Z,2096.00
2022-07-27T10:10:59.276Z,2072.00
2022-07-27T10:11:59.259Z,2036.00
2022-07-27T10:12:59.159Z,1988.00
2022-07-27T10:13:59.088Z,2020.00
2022-07-27T10:14:59.080Z,2060.00
2022-07-27T10:15:59.052Z,2048.00
2022-07-27T10:16:58.972Z,2016.00
2022-07-27T10:17:59.212Z,2204.00
2022-07-27T10:18:58.767Z,1988.00
2022-07-27T10:19:58.793Z,1852.00
2022-07-27T10:20:58.717Z,1736.00
2022-07-27T10:21:58.731Z,1684.00
2022-07-27T10:22:59.281Z,1688.00
2022-07-27T10:23:58.546Z,1708.00
2022-07-27T10:24:58.518Z,1860.00
2022-07-27T10:26:00.898Z,2160.00
2022-07-27T10:26:58.419Z,2164.00
2022-07-27T10:27:58.424Z,2152.00
2022-07-27T10:29:00.193Z,2180.00
2022-07-27T10:29:58.233Z,2044.00
2022-07-27T10:30:58.174Z,1956.00
2022-07-27T10:31:58.204Z,1872.00
2022-07-27T10:32:57.980Z,1780.00
2022-07-27T10:33:57.958Z,1724.00
2022-07-27T10:34:57.914Z,1692.00
2022-07-27T10:35:57.872Z,1728.00
2022-07-27T10:36:57.779Z,1784.00
2022-07-27T10:37:57.808Z,2008.00
2022-07-27T10:38:57.694Z,1928.00
2022-07-27T10:39:57.584Z,2024.00
2022-07-27T10:40:57.485Z,2188.00
2022-07-27T10:41:57.518Z,2272.00
2022-07-27T10:42:57.413Z,2604.00
2022-07-27T10:43:57.407Z,2592.00
2022-07-27T10:44:57.305Z,3744.00
2022-07-27T10:46:02.117Z,2580.00
2022-07-27T10:46:57.220Z,3860.00
2022-07-27T10:47:57.130Z,2740.00
2022-07-27T10:48:57.125Z,2704.00
2022-07-27T10:49:57.036Z,2584.00
2022-07-27T10:50:56.948Z,3476.00
2022-07-27T10:51:56.937Z,2304.00
2022-07-27T10:52:56.861Z,2172.00
2022-07-27T10:54:11.891Z,2076.00
2022-07-27T10:54:59.958Z,2004.00
2022-07-27T10:55:56.659Z,1956.00
2022-07-27T10:56:56.593Z,1932.00
2022-07-27T10:57:56.576Z,1904.00
2022-07-27T10:58:56.480Z,1816.00
2022-07-27T11:00:16.270Z,1864.00
2022-07-27T11:00:56.420Z,1924.00
2022-07-27T11:01:56.380Z,1788.00
2022-07-27T11:02:56.446Z,1736.00
2022-07-27T11:03:56.421Z,1680.00
2022-07-27T11:04:56.133Z,1700.00
2022-07-27T11:06:04.801Z,1688.00
2022-07-27T11:07:23.696Z,1920.00
2022-07-27T11:08:34.480Z,4068.00
2022-07-27T11:09:27.331Z,4284.00
2022-07-27T11:10:04.725Z,4512.00
2022-07-27T11:10:55.864Z,2452.00
2022-07-27T11:11:55.764Z,3072.00
2022-07-27T11:12:55.759Z,2900.00
2022-07-27T11:13:55.783Z,2512.00
2022-07-27T11:14:55.563Z,2560.00
2022-07-27T11:16:09.789Z,2304.00
2022-07-27T11:16:58.940Z,2196.00
2022-07-27T11:18:02.212Z,2056.00
2022-07-27T11:18:55.404Z,1924.00
2022-07-27T11:19:55.288Z,1912.00
2022-07-27T11:20:55.212Z,1920.00
2022-07-27T11:21:55.204Z,2188.00
2022-07-27T11:23:55.104Z,2104.00
2022-07-27T11:24:55.010Z,1988.00
2022-07-27T11:25:54.939Z,1904.00
2022-07-27T11:26:54.846Z,1812.00
2022-07-27T11:27:54.820Z,1700.00
2022-07-27T11:28:54.755Z,1648.00
2022-07-27T11:29:54.822Z,1536.00
2022-07-27T11:30:54.726Z,1468.00
2022-07-27T11:31:57.734Z,1384.00
2022-07-27T11:32:54.571Z,1304.00
2022-07-27T11:33:54.544Z,1272.00
2022-07-27T11:34:54.455Z,1288.00
2022-07-27T11:35:54.359Z,1324.00
2022-07-27T11:36:54.289Z,1388.00
2022-07-27T11:37:54.272Z,1464.00
2022-07-27T11:38:54.270Z,1580.00
2022-07-27T11:40:00.282Z,1616.00
2022-07-27T11:40:59.407Z,1676.00
2022-07-27T11:42:09.055Z,1780.00
2022-07-27T11:42:53.925Z,2048.00
2022-07-27T11:43:53.904Z,1928.00
2022-07-27T11:44:53.897Z,2156.00
2022-07-27T11:45:53.865Z,2124.00
2022-07-27T11:46:56.299Z,2104.00
2022-07-27T11:47:53.689Z,2128.00
2022-07-27T11:49:06.769Z,2112.00
2022-07-27T11:49:53.662Z,2088.00
2022-07-27T11:50:53.552Z,2028.00
2022-07-27T11:51:53.438Z,1932.00
2022-07-27T11:52:56.124Z,1864.00
2022-07-27T11:53:53.377Z,1812.00
2022-07-27T11:54:53.282Z,1832.00
2022-07-27T11:55:53.287Z,1724.00
2022-07-27T11:56:53.162Z,1696.00
2022-07-27T11:57:53.092Z,1724.00
2022-07-27T11:58:53.083Z,1812.00
2022-07-27T11:59:52.977Z,1884.00
2022-07-27T12:00:52.906Z,1932.00
2022-07-27T12:01:52.947Z,1972.00
2022-07-27T12:02:52.800Z,1992.00
2022-07-27T12:03:52.824Z,1992.00
2022-07-27T12:04:52.748Z,1964.00
2022-07-27T12:05:52.635Z,1956.00
2022-07-27T12:06:52.627Z,1928.00
2022-07-27T12:07:52.519Z,1952.00
2022-07-27T12:08:52.451Z,1900.00
2022-07-27T12:09:52.445Z,1892.00
2022-07-27T12:10:52.337Z,1904.00
2022-07-27T12:11:52.344Z,1916.00
2022-07-27T12:12:52.335Z,1912.00
2022-07-27T12:13:52.174Z,1896.00
2022-07-27T12:14:52.171Z,1848.00
2022-07-27T12:15:52.058Z,1800.00
2022-07-27T12:16:53.162Z,1776.00
2022-07-27T12:17:51.995Z,1756.00
2022-07-27T12:18:51.879Z,1772.00
2022-07-27T12:19:51.889Z,1744.00
2022-07-27T12:20:51.791Z,1736.00
2022-07-27T12:21:51.777Z,1788.00
2022-07-27T12:22:51.701Z,1832.00
2022-07-27T12:23:51.599Z,1868.00
2022-07-27T12:24:51.591Z,1928.00
2022-07-27T12:25:51.522Z,2036.00
2022-07-27T12:26:51.440Z,2068.00
2022-07-27T12:27:51.341Z,1992.00
2022-07-27T12:28:51.331Z,1936.00
2022-07-27T12:29:51.249Z,1912.00
2022-07-27T12:30:51.321Z,1876.00